Saint Marys, Ohio
Current Conditions -  °F | °C
As of 7:13 PM on Wednesday 26 Nov 2014 (Local Time) from KAXV Reporting Station
Overcast Overcast  
Wind Chill: 32°   Ceiling: 2200
Heat Index: 32°   Visibility: 10mi
Dew Point: 27°   Wind: 3mph
Humidity: 80%   Direction: 350°N
Pressure: 30.06"   Gusts: NA
Location:  40.54°N, 84.39°W
Report Text: KAXV 270013Z AUTO 35003KT 10SM OVC022 00/M03 A3006 RMK AO2
Loading
Personal Weather Stations






























Interactive Weather Map New forecast layout! Learn more

10-Day Weather Forecast

Advertisements
Track Severe Weather on mobile